Auburn, New Hampshire
Current Conditions -  °F | °C
As of 1:53 AM on Monday 24 Nov 2014 (Local Time) from KMHT Reporting Station
Overcast Overcast  
Wind Chill:   Ceiling: 24000
Heat Index:   Visibility: 10mi
Dew Point:   Wind: 0mph
Humidity: 67%   Direction: NA
Pressure: 30.03"   Gusts: NA
Location:  43°N, 71.35°W
Report Text: KMHT 240653Z 00000KT 10SM OVC240 06/00 A3003 RMK AO2 SLP184 T00560000
Loading
Personal Weather Stations






























Interactive Weather Map New forecast layout! Learn more

10-Day Weather Forecast

Advertisements
Track Severe Weather on mobile